createdAt,value
2019-05-05T00:00:50.020Z,67.17
2019-05-05T00:03:28.287Z,66.99
2019-05-05T00:05:57.558Z,66.88
2019-05-05T00:08:25.247Z,66.83
2019-05-05T00:11:10.568Z,66.72
2019-05-05T00:13:40.015Z,66.53
2019-05-05T00:16:18.223Z,66.61
2019-05-05T00:18:45.875Z,66.77
2019-05-05T00:21:15.112Z,66.64
2019-05-05T00:23:44.983Z,66.75
2019-05-05T00:26:14.682Z,66.51
2019-05-05T00:28:41.936Z,66.68
2019-05-05T00:31:09.558Z,66.36
2019-05-05T00:33:37.183Z,66.42
2019-05-05T00:36:07.758Z,66.41
2019-05-05T00:38:35.241Z,66.61
2019-05-05T00:41:05.317Z,66.60
2019-05-05T00:43:34.413Z,66.53
2019-05-05T00:46:06.503Z,66.29
2019-05-05T00:48:35.771Z,65.95
2019-05-05T00:51:04.648Z,66.12
2019-05-05T00:53:34.313Z,66.24
2019-05-05T00:56:01.775Z,66.16
2019-05-05T00:58:31.279Z,66.16
2019-05-05T01:01:17.208Z,65.88
2019-05-05T01:03:44.864Z,65.92
2019-05-05T01:06:15.105Z,66.11
2019-05-05T01:08:44.567Z,66.18
2019-05-05T01:11:14.504Z,66.11
2019-05-05T01:13:42.707Z,66.14
2019-05-05T01:16:10.351Z,66.08
2019-05-05T01:18:38.005Z,66.00
2019-05-05T01:21:05.963Z,66.46
2019-05-05T01:23:35.007Z,66.51
2019-05-05T01:26:05.046Z,66.56
2019-05-05T01:28:32.944Z,66.52
2019-05-05T01:31:02.216Z,66.38
2019-05-05T01:33:31.491Z,66.35
2019-05-05T01:35:59.308Z,66.21
2019-05-05T01:38:31.383Z,66.08
2019-05-05T01:41:06.134Z,66.35
2019-05-05T01:43:34.624Z,66.44
2019-05-05T01:46:02.445Z,66.79
2019-05-05T01:48:30.143Z,66.72
2019-05-05T01:50:57.785Z,66.67
2019-05-05T01:53:25.418Z,66.43
2019-05-05T01:55:54.245Z,66.38
2019-05-05T01:58:24.248Z,66.60
2019-05-05T02:00:51.523Z,66.62
2019-05-05T02:03:19.441Z,66.68
2019-05-05T02:05:47.098Z,66.68
2019-05-05T02:08:15.352Z,67.17
2019-05-05T02:10:45.173Z,67.04
2019-05-05T02:13:12.517Z,66.86
2019-05-05T02:15:40.138Z,67.02
2019-05-05T02:18:07.765Z,67.34
2019-05-05T02:20:39.262Z,67.19
2019-05-05T02:23:07.355Z,67.11
2019-05-05T02:25:34.990Z,67.04
2019-05-05T02:28:04.457Z,66.70
2019-05-05T02:30:39.527Z,66.72
2019-05-05T02:33:08.801Z,66.64
2019-05-05T02:35:36.500Z,66.69
2019-05-05T02:38:06.629Z,66.55
2019-05-05T02:40:35.254Z,66.55
2019-05-05T02:43:05.479Z,66.36
2019-05-05T02:45:35.292Z,66.39
2019-05-05T02:48:07.832Z,66.36
2019-05-05T02:51:01.806Z,66.32
2019-05-05T02:53:26.871Z,66.15
2019-05-05T02:55:56.000Z,66.12
2019-05-05T02:58:24.482Z,66.28
2019-05-05T03:01:00.092Z,66.48
2019-05-05T03:03:28.143Z,67.01
2019-05-05T03:05:55.826Z,67.11
2019-05-05T03:08:24.312Z,66.84
2019-05-05T03:10:53.625Z,67.05
2019-05-05T03:13:21.884Z,66.65
2019-05-05T03:15:50.901Z,66.97
2019-05-05T03:18:18.634Z,67.04
2019-05-05T03:20:46.555Z,67.33
2019-05-05T03:23:14.447Z,67.11
2019-05-05T03:25:43.958Z,66.98
2019-05-05T03:28:13.460Z,66.86
2019-05-05T03:30:40.900Z,66.75
2019-05-05T03:33:08.575Z,66.74
2019-05-05T03:35:36.680Z,66.90
2019-05-05T03:38:04.772Z,66.91
2019-05-05T03:40:34.446Z,66.72
2019-05-05T03:43:04.258Z,66.48
2019-05-05T03:45:44.491Z,66.54
2019-05-05T03:48:13.597Z,66.78
2019-05-05T03:50:41.455Z,66.88
2019-05-05T03:53:09.451Z,66.72
2019-05-05T03:55:37.170Z,66.62
2019-05-05T03:58:04.828Z,66.65
2019-05-05T04:00:52.227Z,67.22
2019-05-05T04:03:19.857Z,67.25
2019-05-05T04:05:49.107Z,67.43
2019-05-05T04:08:16.749Z,67.66
2019-05-05T04:10:44.362Z,67.87
2019-05-05T04:13:13.813Z,68.12
2019-05-05T04:15:44.196Z,68.37
2019-05-05T04:18:14.613Z,68.03
2019-05-05T04:20:44.192Z,67.95
2019-05-05T04:23:13.986Z,67.72
2019-05-05T04:25:41.083Z,67.41
2019-05-05T04:28:08.702Z,67.60
2019-05-05T04:30:36.363Z,67.78
2019-05-05T04:33:07.223Z,68.40
2019-05-05T04:35:34.927Z,68.18
2019-05-05T04:38:04.147Z,68.40
2019-05-05T04:40:31.911Z,68.43
2019-05-05T04:42:59.555Z,68.60
2019-05-05T04:45:27.198Z,68.21
2019-05-05T04:47:59.379Z,68.74
2019-05-05T04:50:28.646Z,68.22
2019-05-05T04:52:57.912Z,68.66
2019-05-05T04:55:25.542Z,67.97
2019-05-05T04:57:54.053Z,67.93
2019-05-05T05:00:24.027Z,67.78
2019-05-05T05:02:55.559Z,68.23
2019-05-05T05:05:33.822Z,68.01
2019-05-05T05:08:03.270Z,68.12
2019-05-05T05:10:31.008Z,68.29
2019-05-05T05:12:58.675Z,67.99
2019-05-05T05:15:26.916Z,68.57
2019-05-05T05:17:56.220Z,68.52
2019-05-05T05:20:24.674Z,67.71
2019-05-05T05:22:54.322Z,67.87
2019-05-05T05:25:23.901Z,67.13
2019-05-05T05:27:53.488Z,67.80
2019-05-05T05:30:20.742Z,67.74
2019-05-05T05:32:48.477Z,67.34
2019-05-05T05:35:16.216Z,67.66
2019-05-05T05:37:44.760Z,67.78
2019-05-05T05:40:20.511Z,68.54
2019-05-05T05:42:48.146Z,68.64
2019-05-05T05:45:29.355Z,69.28
2019-05-05T05:47:58.628Z,68.81
2019-05-05T05:50:27.906Z,68.20
2019-05-05T05:52:55.555Z,69.62
2019-05-05T05:55:23.772Z,68.81
2019-05-05T05:57:51.595Z,67.90
2019-05-05T06:00:19.608Z,68.74
2019-05-05T06:02:47.236Z,68.16
2019-05-05T06:05:14.909Z,68.02
2019-05-05T06:07:44.260Z,66.78
2019-05-05T06:10:23.674Z,66.25
2019-05-05T06:12:41.633Z,66.61
2019-05-05T06:15:09.552Z,66.03
2019-05-05T06:17:37.558Z,65.60
2019-05-05T06:20:06.190Z,65.29
2019-05-05T06:22:34.427Z,64.73
2019-05-05T06:25:06.120Z,64.70
2019-05-05T06:27:31.575Z,64.37
2019-05-05T06:29:59.212Z,63.98
2019-05-05T06:32:26.875Z,62.98
2019-05-05T06:34:54.518Z,62.58
2019-05-05T06:37:23.783Z,62.79
2019-05-05T06:39:54.406Z,61.58
2019-05-05T06:42:26.900Z,60.80
2019-05-05T06:44:56.167Z,61.45
2019-05-05T06:47:25.191Z,59.79
2019-05-05T06:49:54.196Z,60.28
2019-05-05T06:52:22.214Z,59.70
2019-05-05T06:54:49.847Z,57.59
2019-05-05T06:57:17.472Z,56.99
2019-05-05T06:59:45.250Z,56.77
2019-05-05T07:02:14.567Z,56.77
2019-05-05T07:04:44.700Z,58.05
2019-05-05T07:07:14.386Z,57.56
2019-05-05T07:09:44.081Z,56.21
2019-05-05T07:12:13.644Z,54.18
2019-05-05T07:14:40.743Z,54.33
2019-05-05T07:17:50.407Z,53.02
2019-05-05T07:20:18.839Z,51.80
2019-05-05T07:22:58.876Z,50.45
2019-05-05T07:25:17.490Z,49.44
2019-05-05T07:27:46.000Z,49.21
2019-05-05T07:30:14.564Z,48.93
2019-05-05T07:32:44.296Z,47.89
2019-05-05T07:35:14.887Z,48.17
2019-05-05T07:37:43.649Z,47.79
2019-05-05T07:40:13.878Z,46.78
2019-05-05T07:42:44.090Z,48.65
2019-05-05T07:45:22.087Z,48.28
2019-05-05T07:47:43.656Z,49.24
2019-05-05T07:50:27.905Z,49.17
2019-05-05T07:52:43.861Z,49.55
2019-05-05T07:55:14.260Z,50.00
2019-05-05T07:57:43.547Z,48.57
2019-05-05T08:00:14.635Z,48.18
2019-05-05T08:02:43.908Z,48.36
2019-05-05T08:05:14.107Z,48.92
2019-05-05T08:07:44.511Z,48.34
2019-05-05T08:10:13.783Z,48.81
2019-05-05T08:12:43.662Z,49.17
2019-05-05T08:15:17.239Z,49.37
2019-05-05T08:17:50.222Z,48.64
2019-05-05T08:20:20.437Z,48.61
2019-05-05T08:22:49.151Z,48.37
2019-05-05T08:25:39.348Z,48.85
2019-05-05T08:28:11.688Z,50.37
2019-05-05T08:30:54.600Z,50.56
2019-05-05T08:33:24.100Z,50.64
2019-05-05T08:35:54.112Z,51.35
2019-05-05T08:38:24.266Z,50.83
2019-05-05T08:40:54.343Z,51.22
2019-05-05T08:43:24.142Z,51.24
2019-05-05T08:45:52.722Z,50.80
2019-05-05T08:53:54.590Z,52.20
2019-05-05T08:56:23.863Z,52.99
2019-05-05T08:58:54.343Z,52.23
2019-05-05T09:01:23.777Z,50.85
2019-05-05T09:03:53.530Z,49.69
2019-05-05T09:06:24.022Z,49.25
2019-05-05T09:08:52.189Z,49.01
2019-05-05T09:11:20.627Z,47.04
2019-05-05T09:13:49.221Z,46.65
2019-05-05T09:16:17.804Z,42.91
2019-05-05T09:18:59.680Z,41.76
2019-05-05T09:21:28.136Z,42.18
2019-05-05T09:24:02.370Z,40.26
2019-05-05T09:26:45.357Z,40.47
2019-05-05T09:29:21.184Z,38.51
2019-05-05T09:31:49.617Z,39.55
2019-05-05T09:34:18.138Z,37.49
2019-05-05T09:36:46.918Z,38.85
2019-05-05T09:39:15.374Z,39.58
2019-05-05T09:41:44.608Z,39.72
2019-05-05T09:44:13.651Z,40.45
2019-05-05T09:46:42.181Z,41.03
2019-05-05T09:49:10.899Z,40.79
2019-05-05T09:51:39.316Z,41.01
2019-05-05T09:54:14.167Z,41.15
2019-05-05T09:56:38.217Z,42.22
2019-05-05T09:59:06.665Z,42.01
2019-05-05T10:01:35.271Z,41.10
2019-05-05T10:04:10.751Z,39.91
2019-05-05T10:06:41.354Z,38.73
2019-05-05T10:09:13.632Z,38.07
2019-05-05T10:11:41.739Z,37.32
2019-05-05T10:14:10.236Z,37.68
2019-05-05T10:16:38.730Z,38.28
2019-05-05T10:19:07.230Z,39.30
2019-05-05T10:21:35.660Z,40.90
2019-05-05T10:24:08.920Z,41.53
2019-05-05T10:26:37.454Z,43.37
2019-05-05T10:29:05.886Z,43.16
2019-05-05T10:31:34.644Z,43.66
2019-05-05T10:34:17.006Z,42.75
2019-05-05T10:36:45.567Z,42.10
2019-05-05T10:39:15.651Z,43.42
2019-05-05T10:41:44.210Z,44.09
2019-05-05T10:44:14.140Z,44.04
2019-05-05T10:46:43.039Z,43.79
2019-05-05T10:49:13.600Z,44.88
2019-05-05T10:51:43.825Z,43.74
2019-05-05T10:54:11.765Z,43.12
2019-05-05T10:56:40.420Z,43.09
2019-05-05T10:59:08.846Z,43.22
2019-05-05T11:01:37.283Z,41.57
2019-05-05T11:04:05.725Z,41.24
2019-05-05T11:06:34.898Z,40.43
2019-05-05T11:09:05.329Z,39.82
2019-05-05T11:11:34.384Z,39.89
2019-05-05T11:14:03.751Z,40.06
2019-05-05T11:16:32.302Z,40.06
2019-05-05T11:19:01.434Z,39.16
2019-05-05T11:21:30.009Z,38.42
2019-05-05T11:23:58.548Z,38.62
2019-05-05T11:26:26.981Z,38.81
2019-05-05T11:28:55.418Z,38.77
2019-05-05T11:31:24.283Z,37.41
2019-05-05T11:33:57.369Z,38.97
2019-05-05T11:36:27.466Z,39.82
2019-05-05T11:38:55.908Z,39.93
2019-05-05T11:41:24.555Z,38.01
2019-05-05T11:43:53.507Z,36.82
2019-05-05T11:46:24.551Z,36.86
2019-05-05T11:48:54.411Z,37.33
2019-05-05T11:51:24.793Z,36.75
2019-05-05T11:53:54.025Z,36.27
2019-05-05T11:56:22.543Z,35.86
2019-05-05T11:58:50.987Z,34.80
2019-05-05T12:01:21.215Z,34.71
2019-05-05T12:03:49.681Z,34.05
2019-05-05T12:06:18.103Z,34.49
2019-05-05T12:08:46.737Z,34.66
2019-05-05T12:11:15.289Z,34.58
2019-05-05T12:13:43.967Z,32.92
2019-05-05T12:16:14.051Z,32.39
2019-05-05T12:18:44.216Z,32.63
2019-05-05T12:21:14.010Z,33.15
2019-05-05T12:23:44.438Z,34.23
2019-05-05T12:26:20.722Z,34.42
2019-05-05T12:28:50.804Z,34.68
2019-05-05T12:31:20.901Z,35.01
2019-05-05T12:33:49.482Z,35.44
2019-05-05T12:36:17.923Z,35.27
2019-05-05T12:38:46.344Z,35.11
2019-05-05T12:41:14.964Z,35.82
2019-05-05T12:43:44.239Z,35.23
2019-05-05T12:46:17.263Z,35.31
2019-05-05T12:48:47.343Z,36.00
2019-05-05T12:51:15.761Z,37.11
2019-05-05T12:53:44.197Z,37.89
2019-05-05T12:56:14.469Z,37.70
2019-05-05T12:58:43.992Z,38.09
2019-05-05T13:01:14.410Z,38.17
2019-05-05T13:03:43.790Z,37.42
2019-05-05T13:06:14.477Z,35.55
2019-05-05T13:08:44.410Z,36.06
2019-05-05T13:11:12.947Z,35.44
2019-05-05T13:13:41.385Z,36.47
2019-05-05T13:16:09.948Z,34.53
2019-05-05T13:18:38.851Z,34.19
2019-05-05T13:21:11.721Z,33.49
2019-05-05T13:23:44.548Z,34.01
2019-05-05T13:26:14.599Z,32.29
2019-05-05T13:28:43.740Z,32.53
2019-05-05T13:31:13.940Z,31.65
2019-05-05T13:33:41.718Z,32.75
2019-05-05T13:36:10.097Z,33.85
2019-05-05T13:38:39.420Z,31.77
2019-05-05T13:41:07.859Z,30.67
2019-05-05T13:43:36.279Z,31.33
2019-05-05T13:46:21.395Z,30.60
2019-05-05T13:48:49.821Z,30.58
2019-05-05T13:51:19.912Z,31.35
2019-05-05T13:53:48.331Z,30.36
2019-05-05T13:56:16.759Z,30.66
2019-05-05T13:58:45.186Z,30.72
2019-05-05T14:01:14.532Z,29.27
2019-05-05T14:03:44.764Z,28.34
2019-05-05T14:06:13.801Z,29.09
2019-05-05T14:08:44.629Z,29.02
2019-05-05T14:11:14.076Z,29.08
2019-05-05T14:13:42.013Z,29.31
2019-05-05T14:16:10.431Z,29.81
2019-05-05T14:18:38.878Z,29.69
2019-05-05T14:21:07.329Z,30.14
2019-05-05T14:23:37.459Z,30.76
2019-05-05T14:26:05.883Z,31.01
2019-05-05T14:28:34.507Z,31.53
2019-05-05T14:31:05.202Z,31.87
2019-05-05T14:33:35.276Z,31.82
2019-05-05T14:36:05.363Z,31.93
2019-05-05T14:38:44.464Z,32.21
2019-05-05T14:41:13.605Z,31.79
2019-05-05T14:43:43.848Z,32.13
2019-05-05T14:46:14.385Z,32.58
2019-05-05T14:48:44.107Z,33.82
2019-05-05T14:51:14.535Z,34.92
2019-05-05T14:53:43.768Z,35.35
2019-05-05T14:56:13.583Z,35.83
2019-05-05T14:58:41.455Z,35.63
2019-05-05T15:01:09.821Z,34.99
2019-05-05T15:03:38.252Z,35.37
2019-05-05T15:06:17.528Z,36.30
2019-05-05T15:08:46.187Z,37.23
2019-05-05T15:11:16.259Z,36.96
2019-05-05T15:13:44.849Z,36.96
2019-05-05T15:16:13.997Z,37.24
2019-05-05T15:18:42.533Z,37.03
2019-05-05T15:21:10.967Z,37.20
2019-05-05T15:23:39.580Z,37.53
2019-05-05T15:26:08.673Z,37.61
2019-05-05T15:28:37.119Z,37.57
2019-05-05T15:31:05.632Z,36.13
2019-05-05T15:33:35.025Z,35.46
2019-05-05T15:36:04.453Z,34.94
2019-05-05T15:38:34.827Z,34.61
2019-05-05T15:41:03.923Z,34.96
2019-05-05T15:43:33.521Z,34.52
2019-05-05T15:46:02.035Z,34.45
2019-05-05T15:48:30.498Z,34.33
2019-05-05T15:50:59.081Z,34.45
2019-05-05T15:53:27.521Z,33.97
2019-05-05T15:55:56.167Z,34.93
2019-05-05T15:58:24.605Z,34.99
2019-05-05T16:00:53.941Z,35.05
2019-05-05T16:03:22.812Z,35.42
2019-05-05T16:05:51.259Z,36.08
2019-05-05T16:08:19.700Z,36.54
2019-05-05T16:10:48.136Z,36.17
2019-05-05T16:13:16.556Z,35.90
2019-05-05T16:15:46.647Z,35.65
2019-05-05T16:18:16.733Z,35.72
2019-05-05T16:20:46.813Z,36.57
2019-05-05T16:23:19.854Z,36.43
2019-05-05T16:25:48.340Z,35.50
2019-05-05T16:28:16.782Z,35.16
2019-05-05T16:30:45.467Z,33.69
2019-05-05T16:33:14.176Z,34.01
2019-05-05T16:35:43.735Z,33.55
2019-05-05T16:38:14.681Z,34.03
2019-05-05T16:40:44.317Z,34.27
2019-05-05T16:43:16.238Z,35.26
2019-05-05T16:45:44.468Z,34.47
2019-05-05T16:48:13.059Z,33.34
2019-05-05T16:50:43.906Z,32.95
2019-05-05T16:53:14.071Z,33.80
2019-05-05T16:55:44.913Z,33.17
2019-05-05T16:58:14.025Z,33.06
2019-05-05T17:00:44.145Z,34.02
2019-05-05T17:03:13.465Z,34.35
2019-05-05T17:05:44.078Z,35.08
2019-05-05T17:08:13.987Z,35.75
2019-05-05T17:10:43.506Z,35.25
2019-05-05T17:13:15.356Z,35.23
2019-05-05T17:15:48.480Z,35.10
2019-05-05T17:18:32.619Z,35.07
2019-05-05T17:21:01.764Z,34.95
2019-05-05T17:23:30.178Z,36.74
2019-05-05T17:25:58.627Z,41.39
2019-05-05T17:28:27.058Z,42.11
2019-05-05T17:30:55.475Z,42.07
2019-05-05T17:33:24.197Z,42.27
2019-05-05T17:35:53.966Z,42.69
2019-05-05T17:38:24.324Z,43.46
2019-05-05T17:40:54.301Z,44.09
2019-05-05T17:43:30.605Z,45.00
2019-05-05T17:46:00.679Z,45.85
2019-05-05T17:48:36.422Z,47.18
2019-05-05T17:51:13.746Z,47.73
2019-05-05T17:53:49.802Z,48.06
2019-05-05T17:56:18.260Z,48.86
2019-05-05T17:58:46.722Z,49.04
2019-05-05T18:01:15.164Z,49.00
2019-05-05T18:03:43.738Z,49.78
2019-05-05T18:06:25.863Z,50.21
2019-05-05T18:09:01.921Z,50.15
2019-05-05T18:11:50.305Z,50.28
2019-05-05T18:14:36.250Z,50.32
2019-05-05T18:17:04.676Z,50.44
2019-05-05T18:19:33.995Z,50.35
2019-05-05T18:22:02.506Z,49.97
2019-05-05T18:24:30.949Z,49.70
2019-05-05T18:26:59.391Z,49.35
2019-05-05T18:29:27.840Z,49.73
2019-05-05T18:31:56.279Z,49.62
2019-05-05T18:34:24.705Z,49.84
2019-05-05T18:36:54.474Z,49.82
2019-05-05T18:39:24.697Z,50.02
2019-05-05T18:41:54.909Z,50.57
2019-05-05T18:44:30.823Z,50.69
2019-05-05T18:47:18.501Z,50.74
2019-05-05T18:49:46.777Z,51.39
2019-05-05T18:52:15.204Z,51.81
2019-05-05T18:54:43.841Z,51.44
2019-05-05T18:57:12.353Z,51.92
2019-05-05T18:59:40.867Z,53.02
2019-05-05T19:02:10.947Z,53.88
2019-05-05T19:04:56.733Z,54.28
2019-05-05T19:07:29.482Z,54.25
2019-05-05T19:09:57.916Z,54.92
2019-05-05T19:12:26.414Z,55.08
2019-05-05T19:14:55.104Z,55.44
2019-05-05T19:17:23.688Z,55.47
2019-05-05T19:19:54.826Z,55.59
2019-05-05T19:22:23.482Z,55.91
2019-05-05T19:24:51.907Z,56.47
2019-05-05T19:27:20.328Z,56.63
2019-05-05T19:29:48.779Z,57.16
2019-05-05T19:32:17.641Z,57.36
2019-05-05T19:34:46.062Z,57.80
2019-05-05T19:37:14.504Z,58.19
2019-05-05T19:39:42.943Z,59.05
2019-05-05T19:42:11.452Z,59.32
2019-05-05T19:44:39.888Z,59.65
2019-05-05T19:47:20.894Z,59.85
2019-05-05T19:49:50.955Z,60.33
2019-05-05T19:52:19.383Z,60.57
2019-05-05T19:54:47.821Z,60.30
2019-05-05T19:57:16.243Z,60.14
2019-05-05T19:59:44.862Z,60.34
2019-05-05T20:02:13.289Z,60.20
2019-05-05T20:04:41.723Z,59.92
2019-05-05T20:07:10.144Z,60.54
2019-05-05T20:09:38.574Z,60.64
2019-05-05T20:12:07.305Z,60.41
2019-05-05T20:14:35.754Z,60.81
2019-05-05T20:17:14.933Z,61.02
2019-05-05T20:19:44.285Z,60.86
2019-05-05T20:22:14.594Z,60.29
2019-05-05T20:24:44.346Z,60.73
2019-05-05T20:27:13.985Z,60.89
2019-05-05T20:29:42.589Z,60.57
2019-05-05T20:32:11.014Z,60.59
2019-05-05T20:34:41.081Z,60.65
2019-05-05T20:37:11.383Z,60.81
2019-05-05T20:39:39.059Z,60.63
2019-05-05T20:42:08.470Z,57.56
2019-05-05T20:44:37.740Z,60.28
2019-05-05T20:47:06.216Z,60.47
2019-05-05T20:49:35.079Z,60.76
2019-05-05T20:52:03.912Z,60.85
2019-05-05T20:54:32.365Z,60.93
2019-05-05T20:57:00.842Z,60.81
2019-05-05T20:59:31.147Z,60.78
2019-05-05T21:01:59.423Z,60.77
2019-05-05T21:04:27.854Z,60.83
2019-05-05T21:06:56.281Z,60.97
2019-05-05T21:09:24.938Z,61.25
2019-05-05T21:11:54.758Z,61.38
2019-05-05T21:14:33.663Z,61.46
2019-05-05T21:16:54.726Z,61.50
2019-05-05T21:19:24.605Z,61.62
2019-05-05T21:21:54.514Z,58.74
2019-05-05T21:24:23.968Z,61.58
2019-05-05T21:26:53.986Z,58.93
2019-05-05T21:29:23.711Z,61.71
2019-05-05T21:31:54.819Z,61.96
2019-05-05T21:34:24.832Z,62.34
2019-05-05T21:36:54.026Z,62.81
2019-05-05T21:39:24.758Z,63.33
2019-05-05T21:41:53.089Z,63.43
2019-05-05T21:44:21.544Z,63.47
2019-05-05T21:46:50.066Z,63.43
2019-05-05T21:49:18.513Z,63.85
2019-05-05T21:51:48.603Z,64.08
2019-05-05T21:54:34.566Z,64.07
2019-05-05T21:57:07.537Z,64.03
2019-05-05T21:59:36.278Z,63.98
2019-05-05T22:02:05.412Z,64.12
2019-05-05T22:04:33.972Z,64.22
2019-05-05T22:07:03.735Z,63.35
2019-05-05T22:09:32.575Z,64.26
2019-05-05T22:12:01.075Z,64.15
2019-05-05T22:14:29.614Z,63.66
2019-05-05T22:16:58.027Z,63.63
2019-05-05T22:19:28.094Z,63.34
2019-05-05T22:21:58.166Z,62.57
2019-05-05T22:24:26.589Z,62.94
2019-05-05T22:26:55.015Z,62.53
2019-05-05T22:29:24.936Z,62.50
2019-05-05T22:31:53.804Z,62.78
2019-05-05T22:34:24.112Z,62.58
2019-05-05T22:36:52.398Z,63.18
2019-05-05T22:39:20.944Z,63.66
2019-05-05T22:41:49.452Z,63.99
2019-05-05T22:44:17.932Z,63.95
2019-05-05T22:46:46.404Z,64.30
2019-05-05T22:49:15.096Z,64.65
2019-05-05T22:51:44.758Z,65.04
2019-05-05T22:54:15.013Z,65.53
2019-05-05T22:56:44.810Z,65.45
2019-05-05T22:59:13.930Z,66.12
2019-05-05T23:01:42.539Z,65.94
2019-05-05T23:04:24.398Z,66.45
2019-05-05T23:06:54.478Z,66.39
2019-05-05T23:09:22.718Z,66.46
2019-05-05T23:11:51.083Z,64.16
2019-05-05T23:14:28.403Z,66.31
2019-05-05T23:17:12.227Z,66.48
2019-05-05T23:19:48.256Z,67.28
2019-05-05T23:22:27.722Z,66.94
2019-05-05T23:25:04.112Z,67.42
2019-05-05T23:27:48.739Z,67.59
2019-05-05T23:30:19.845Z,67.67
2019-05-05T23:32:48.467Z,67.71
2019-05-05T23:35:17.683Z,67.84
2019-05-05T23:37:46.550Z,67.66
2019-05-05T23:40:24.750Z,67.82
2019-05-05T23:42:54.064Z,67.75
2019-05-05T23:45:24.734Z,67.53
2019-05-05T23:47:54.387Z,67.10
2019-05-05T23:50:23.610Z,67.40
2019-05-05T23:52:54.169Z,67.50
2019-05-05T23:55:23.996Z,67.34
2019-05-05T23:57:54.517Z,67.36
